Time;durP1;ratioP1;P1;durP2;ratioP2;P2;SDS_P1;SDS_P2;PMS_P1;PMS_P2;Temp;Humidity;BMP_temperature;BMP_pressure;BME280_temperature;BME280_humidity;BME280_pressure;Samples;Min_cycle;Max_cycle;Signal;HPM_P1;HPM_P2
2022/07/05 00:01:42;;;;;;;5.88;1.38;;;;;;;22.54;38.49;100856.00;4181936;28;20072;-67
2022/07/05 00:03:45;;;;;;;5.50;1.42;;;;;;;22.46;38.73;100852.72;4177655;28;20132;-67
2022/07/05 00:05:48;;;;;;;3.65;1.25;;;;;;;22.43;38.74;100858.13;4177945;28;20033;-67
2022/07/05 00:07:51;;;;;;;4.75;1.48;;;;;;;22.40;38.98;100852.88;4173558;28;20051;-67
2022/07/05 00:09:56;;;;;;;6.72;1.48;;;;;;;22.44;38.96;100858.06;4181750;28;20119;-67
2022/07/05 00:12:00;;;;;;;5.15;1.10;;;;;;;22.45;39.01;100848.31;4176483;28;20128;-67
2022/07/05 00:14:03;;;;;;;4.25;1.40;;;;;;;22.42;39.04;100857.22;4162892;28;20037;-67
2022/07/05 00:16:06;;;;;;;6.75;1.50;;;;;;;22.42;39.21;100848.41;4163665;28;20140;-67
2022/07/05 00:18:09;;;;;;;2.58;1.05;;;;;;;22.39;39.41;100852.00;4182256;28;20075;-67
2022/07/05 00:20:12;;;;;;;5.55;1.42;;;;;;;22.40;39.23;100852.88;4170554;28;20045;-66
2022/07/05 00:22:15;;;;;;;2.90;1.23;;;;;;;22.33;39.44;100846.91;4182149;28;20112;-67
2022/07/05 00:24:18;;;;;;;5.10;1.85;;;;;;;22.30;39.61;100847.81;4173115;28;20041;-66
2022/07/05 00:26:20;;;;;;;4.03;1.75;;;;;;;22.24;39.84;100855.94;4181520;28;20123;-67
2022/07/05 00:28:25;;;;;;;2.78;1.20;;;;;;;22.30;39.93;100853.13;4180352;28;20124;-67
2022/07/05 00:30:28;;;;;;;3.58;1.38;;;;;;;22.27;39.90;100855.00;4174140;28;20037;-66
2022/07/05 00:32:31;;;;;;;3.53;1.35;;;;;;;22.22;40.21;100852.44;4180893;28;20044;-66
2022/07/05 00:34:34;;;;;;;3.03;1.65;;;;;;;22.25;39.92;100849.75;4144927;28;20046;-66
2022/07/05 00:36:37;;;;;;;4.40;1.58;;;;;;;22.23;39.96;100854.19;4175828;28;20107;-66
2022/07/05 00:38:40;;;;;;;3.72;1.55;;;;;;;22.25;39.75;100849.75;4176848;28;20044;-67
2022/07/05 00:40:43;;;;;;;4.55;1.40;;;;;;;22.24;39.79;100853.28;4174065;28;20516;-67
2022/07/05 00:42:46;;;;;;;3.72;1.33;;;;;;;22.19;39.92;100852.53;4140859;28;20045;-66
2022/07/05 00:44:50;;;;;;;9.50;1.33;;;;;;;22.17;39.76;100857.03;4179999;28;20037;-66
2022/07/05 00:46:53;;;;;;;;;;;;;;;21.94;40.13;100850.56;4164925;28;20519;-67
2022/07/05 00:48:58;;;;;;;6.63;1.60;;;;;;;22.05;40.16;100850.28;4163794;28;19964;-66
2022/07/05 00:51:01;;;;;;;7.32;1.35;;;;;;;22.05;40.12;100854.69;4153825;28;20038;-67
2022/07/05 00:53:04;;;;;;;3.10;1.17;;;;;;;21.97;40.71;100845.19;4181332;28;20070;-67
2022/07/05 00:55:09;;;;;;;5.28;1.30;;;;;;;21.97;40.54;100855.75;4181930;28;20530;-67
2022/07/05 00:57:11;;;;;;;;;;;;;;;21.96;40.68;100853.16;4162754;28;20045;-66
2022/07/05 00:59:15;;;;;;;3.28;1.40;;;;;;;21.89;40.88;100852.47;4180673;28;19932;-67
2022/07/05 01:01:19;;;;;;;4.65;1.30;;;;;;;21.93;40.71;100861.19;4138236;28;20452;-67
2022/07/05 01:03:23;;;;;;;3.40;1.35;;;;;;;21.89;40.77;100863.06;4180580;28;20040;-67
2022/07/05 01:05:25;;;;;;;11.20;2.35;;;;;;;21.88;40.85;100865.75;4165593;28;20053;-66
2022/07/05 01:07:29;;;;;;;8.25;3.03;;;;;;;21.87;40.56;100861.34;4188746;28;20068;-66
2022/07/05 01:09:35;;;;;;;10.32;4.18;;;;;;;21.80;40.84;100863.31;4192934;28;20032;-66
2022/07/05 01:11:38;;;;;;;10.38;3.72;;;;;;;21.82;41.17;100857.97;4180012;28;20120;-66
2022/07/05 01:13:41;;;;;;;7.50;3.38;;;;;;;21.86;41.07;100855.22;4167892;28;20045;-66
2022/07/05 01:15:44;;;;;;;6.60;2.95;;;;;;;21.77;41.17;100852.78;4180432;28;20131;-67
2022/07/05 01:17:48;;;;;;;5.68;2.60;;;;;;;21.75;41.08;100855.47;4163487;28;20037;-66
2022/07/05 01:19:52;;;;;;;5.30;2.08;;;;;;;21.81;41.27;100859.75;4169685;28;20041;-66
2022/07/05 01:21:55;;;;;;;4.35;1.70;;;;;;;21.74;41.35;100858.16;4179850;28;20457;-66
2022/07/05 01:24:00;;;;;;;4.28;1.42;;;;;;;21.68;41.55;100860.97;4179256;28;20036;-67
2022/07/05 01:26:04;;;;;;;5.40;1.60;;;;;;;21.72;41.88;100857.34;4180678;28;20052;-66
2022/07/05 01:28:07;;;;;;;4.20;1.55;;;;;;;21.69;41.89;100860.06;4161436;28;20060;-67
2022/07/05 01:30:11;;;;;;;4.85;1.65;;;;;;;21.71;41.96;100858.25;4178463;28;20127;-66
2022/07/05 01:32:14;;;;;;;7.40;1.70;;;;;;;21.65;42.13;100856.63;4162776;28;20208;-67
2022/07/05 01:34:18;;;;;;;2.17;1.23;;;;;;;21.70;42.16;100861.78;4178976;28;20098;-67
2022/07/05 01:36:21;;;;;;;3.85;1.58;;;;;;;21.68;41.87;100858.31;4162513;28;20571;-65
2022/07/05 01:38:24;;;;;;;5.72;1.63;;;;;;;21.68;41.94;100863.63;4151064;28;20042;-65
2022/07/05 01:40:29;;;;;;;4.83;1.67;;;;;;;21.60;41.78;100859.38;4170769;28;20041;-65
2022/07/05 01:42:32;;;;;;;7.25;1.95;;;;;;;21.57;41.99;100854.19;4160356;28;20332;-66
2022/07/05 01:44:35;;;;;;;4.15;1.50;;;;;;;21.58;41.86;100855.91;4157912;28;20088;-65
2022/07/05 01:46:39;;;;;;;3.72;1.42;;;;;;;21.60;41.89;100861.16;4169857;28;20065;-65
2022/07/05 01:48:42;;;;;;;3.30;1.30;;;;;;;21.55;42.11;100863.94;4171507;28;20041;-65
2022/07/05 01:50:49;;;;;;;2.72;1.25;;;;;;;21.54;42.62;100851.59;4188290;28;20499;-66
2022/07/05 01:52:52;;;;;;;3.17;1.40;;;;;;;21.61;42.06;100858.50;4152914;28;20535;-66
2022/07/05 01:54:55;;;;;;;3.78;1.25;;;;;;;21.60;42.06;100861.16;4165173;28;20037;-66
2022/07/05 01:57:00;;;;;;;4.05;1.55;;;;;;;21.62;42.00;100864.63;4177831;28;20512;-66
2022/07/05 01:59:03;;;;;;;3.85;1.17;;;;;;;21.60;42.46;100856.75;4161672;28;20095;-66
2022/07/05 02:01:06;;;;;;;2.78;1.30;;;;;;;21.64;43.41;100864.59;4162298;28;20132;-66
2022/07/05 02:03:09;;;;;;;4.15;1.30;;;;;;;21.64;44.57;100872.53;4179432;28;20049;-66
2022/07/05 02:05:12;;;;;;;3.27;1.40;;;;;;;21.66;43.79;100866.31;4163334;28;20041;-66
2022/07/05 02:07:17;;;;;;;;;;;;;;;21.52;44.09;100868.41;4159941;28;20048;-66
2022/07/05 02:09:20;;;;;;;4.60;1.33;;;;;;;21.51;43.90;100869.31;4161868;28;20004;-66
2022/07/05 02:11:23;;;;;;;3.28;1.20;;;;;;;21.50;43.73;100871.06;4160724;28;20425;-66
2022/07/05 02:13:27;;;;;;;2.25;1.00;;;;;;;21.51;43.88;100871.97;4162898;28;20041;-66
2022/07/05 02:15:31;;;;;;;2.47;1.20;;;;;;;21.47;43.99;100860.56;4137792;28;20042;-66
2022/07/05 02:17:34;;;;;;;2.05;1.30;;;;;;;21.38;44.24;100860.81;4175004;28;20040;-66
2022/07/05 02:19:38;;;;;;;3.95;1.27;;;;;;;21.35;44.45;100861.75;4159333;28;20456;-66
2022/07/05 02:21:43;;;;;;;3.50;1.10;;;;;;;21.39;44.11;100863.41;4187354;28;20044;-66
2022/07/05 02:23:51;;;;;;;5.22;1.52;;;;;;;21.40;43.96;100862.47;4180035;28;20037;-66
2022/07/05 02:25:55;;;;;;;2.13;0.93;;;;;;;21.40;44.55;100861.63;4150173;28;20169;-66
2022/07/05 02:27:58;;;;;;;4.53;1.35;;;;;;;21.44;44.60;100865.94;4152891;28;20044;-65
2022/07/05 02:30:03;;;;;;;3.58;1.48;;;;;;;21.34;44.72;100862.63;4162041;28;20492;-65
2022/07/05 02:32:14;;;;;;;2.58;1.38;;;;;;;21.31;44.62;100857.44;4145402;28;20042;-66
2022/07/05 02:34:17;;;;;;;3.60;1.30;;;;;;;21.26;44.90;100860.19;4187866;28;20435;-66
2022/07/05 02:36:21;;;;;;;3.28;1.60;;;;;;;21.25;43.96;100863.72;4194808;28;20458;-65
2022/07/05 02:38:24;;;;;;;7.00;2.42;;;;;;;21.20;44.20;100857.69;4170382;28;20044;-66
2022/07/05 02:40:27;;;;;;;6.90;1.85;;;;;;;21.18;44.10;100861.28;4155563;28;20037;-66
2022/07/05 02:42:30;;;;;;;8.00;1.55;;;;;;;21.16;43.97;100868.34;4161564;28;20040;-66
2022/07/05 02:44:33;;;;;;;4.47;1.40;;;;;;;21.17;43.48;100870.09;4167503;28;20132;-66
2022/07/05 02:46:38;;;;;;;6.20;2.15;;;;;;;21.16;43.09;100871.88;4172914;28;20042;-66
2022/07/05 02:48:41;;;;;;;2.95;1.70;;;;;;;21.18;42.77;100869.22;4178455;28;20041;-66
2022/07/05 02:50:45;;;;;;;4.28;1.70;;;;;;;21.15;42.53;100872.78;4158475;28;20501;-66
2022/07/05 02:52:48;;;;;;;4.03;2.00;;;;;;;21.12;42.41;100867.56;4161763;28;20029;-66
2022/07/05 02:54:52;;;;;;;9.05;1.77;;;;;;;20.99;43.28;100871.41;4135828;28;20449;-66
2022/07/05 02:56:56;;;;;;;2.72;1.60;;;;;;;21.01;42.73;100873.13;4175539;28;20092;-66
2022/07/05 02:59:00;;;;;;;4.35;1.90;;;;;;;21.03;42.96;100875.72;4161560;28;20500;-66
2022/07/05 03:01:06;;;;;;;4.07;1.60;;;;;;;20.99;42.88;100877.53;4169968;28;20053;-66
2022/07/05 03:03:14;;;;;;;2.80;1.17;;;;;;;20.97;43.28;100870.53;4169893;28;20041;-66
2022/07/05 03:05:17;;;;;;;4.47;1.73;;;;;;;21.02;43.03;100871.31;4153217;28;20097;-66
2022/07/05 03:07:30;;;;;;;2.63;1.42;;;;;;;21.01;43.09;100872.22;4171985;28;20061;-65
2022/07/05 03:09:34;;;;;;;4.93;1.60;;;;;;;20.95;42.97;100867.09;4165931;28;20037;-66
2022/07/05 03:11:38;;;;;;;;;;;;;;;20.81;43.23;100876.19;4162915;28;20056;-65
2022/07/05 03:13:43;;;;;;;5.05;1.90;;;;;;;20.95;43.21;100875.00;4165856;28;19968;-65
2022/07/05 03:15:46;;;;;;;2.78;1.52;;;;;;;20.83;43.19;100874.38;4160984;28;20556;-66
2022/07/05 03:17:53;;;;;;;4.25;1.70;;;;;;;20.80;43.52;100879.72;4162311;28;20634;-66
2022/07/05 03:19:59;;;;;;;8.45;1.60;;;;;;;20.84;43.58;100881.41;4165761;28;20128;-66
2022/07/05 03:22:04;;;;;;;3.28;1.33;;;;;;;20.81;43.44;100876.19;4164675;28;20489;-65
2022/07/05 03:24:09;;;;;;;5.47;1.73;;;;;;;20.73;43.42;100875.47;4155989;28;20083;-66
2022/07/05 03:26:15;;;;;;;4.65;1.38;;;;;;;20.72;43.57;100873.72;4158795;28;20128;-66
2022/07/05 03:28:19;;;;;;;6.38;1.60;;;;;;;20.77;43.05;100879.78;4164694;28;20037;-66
2022/07/05 03:30:25;;;;;;;4.82;1.77;;;;;;;20.68;43.71;100875.56;4160570;28;20073;-66
2022/07/05 03:32:29;;;;;;;6.07;1.60;;;;;;;20.67;43.79;100880.91;4168522;28;20151;-66
2022/07/05 03:34:32;;;;;;;7.80;1.80;;;;;;;20.67;43.78;100878.25;4165533;28;20064;-66
2022/07/05 03:36:39;;;;;;;4.85;1.60;;;;;;;20.69;43.55;100876.44;4158583;28;20488;-66
2022/07/05 03:38:46;;;;;;;5.53;1.63;;;;;;;20.68;43.78;100878.22;4162924;28;20048;-65
2022/07/05 03:40:50;;;;;;;4.68;1.30;;;;;;;20.69;43.40;100881.72;4152901;28;20185;-66
2022/07/05 03:42:53;;;;;;;2.70;1.15;;;;;;;20.62;43.88;100888.00;4161826;28;20045;-65
2022/07/05 03:44:56;;;;;;;4.13;1.83;;;;;;;20.61;44.17;100888.91;4170297;28;20045;-66
2022/07/05 03:46:59;;;;;;;6.05;1.70;;;;;;;20.58;44.08;100884.56;4165315;28;20128;-65
2022/07/05 03:49:03;;;;;;;4.88;1.70;;;;;;;20.61;44.26;100892.41;4154058;28;20037;-66
2022/07/05 03:51:06;;;;;;;3.53;1.80;;;;;;;20.64;44.20;100894.13;4163317;28;20409;-66
2022/07/05 03:53:11;;;;;;;5.18;1.80;;;;;;;20.50;44.95;100892.66;4164564;28;20045;-66
2022/07/05 03:55:14;;;;;;;10.93;1.50;;;;;;;20.57;44.46;100898.66;4165337;28;20068;-65
2022/07/05 03:57:18;;;;;;;5.82;1.90;;;;;;;20.55;44.56;100898.69;4181512;28;20090;-66
2022/07/05 03:59:22;;;;;;;3.88;1.70;;;;;;;20.55;44.73;100901.34;4159129;28;20140;-65
2022/07/05 04:01:25;;;;;;;5.35;2.10;;;;;;;20.53;44.84;100902.25;4158178;28;20041;-65
2022/07/05 04:03:29;;;;;;;5.07;1.73;;;;;;;20.50;44.86;100903.22;4188489;28;20132;-65
2022/07/05 04:05:34;;;;;;;3.85;1.73;;;;;;;20.51;45.03;100899.66;4159706;28;20558;-66
2022/07/05 04:07:48;;;;;;;4.97;1.58;;;;;;;20.53;45.13;100902.25;4162822;28;20564;-66
2022/07/05 04:09:52;;;;;;;4.60;1.77;;;;;;;20.49;45.06;100909.38;4169656;28;20136;-66
2022/07/05 04:11:55;;;;;;;3.42;1.38;;;;;;;20.52;45.02;100905.81;4181474;28;20091;-66
2022/07/05 04:13:59;;;;;;;5.45;1.40;;;;;;;20.45;45.15;100907.69;4148521;28;20517;-66
2022/07/05 04:16:02;;;;;;;4.35;2.10;;;;;;;20.56;45.14;100907.50;4175119;28;20037;-66
2022/07/05 04:18:06;;;;;;;4.20;1.73;;;;;;;20.57;45.28;100915.41;4160136;28;20037;-67
2022/07/05 04:20:12;;;;;;;6.13;1.45;;;;;;;20.53;45.79;100912.81;4158308;28;20436;-62
2022/07/05 04:22:17;;;;;;;7.20;1.70;;;;;;;20.65;45.57;100907.31;4157608;28;20128;-62
2022/07/05 04:24:20;;;;;;;4.53;1.70;;;;;;;20.75;44.75;100910.69;4180170;28;20095;-62
2022/07/05 04:26:25;;;;;;;4.55;2.15;;;;;;;20.68;44.84;100912.56;4163217;28;20091;-62
2022/07/05 04:28:29;;;;;;;11.20;2.25;;;;;;;20.73;44.63;100915.09;4156586;28;20042;-62
2022/07/05 04:30:33;;;;;;;6.90;2.30;;;;;;;20.65;44.72;100917.03;4161594;28;20053;-62
2022/07/05 04:32:36;;;;;;;5.38;2.10;;;;;;;20.62;44.98;100923.22;4163221;28;20079;-62
2022/07/05 04:34:40;;;;;;;3.80;1.42;;;;;;;20.61;44.56;100923.25;4147372;28;20042;-62
2022/07/05 04:36:43;;;;;;;4.95;1.95;;;;;;;20.57;44.92;100925.06;4166206;28;20037;-63
2022/07/05 04:38:46;;;;;;;6.05;1.63;;;;;;;20.57;44.81;100928.63;4160296;28;20497;-63
2022/07/05 04:40:50;;;;;;;4.60;1.77;;;;;;;20.57;45.06;100933.00;4163901;28;20033;-64
2022/07/05 04:42:55;;;;;;;7.10;2.17;;;;;;;20.58;44.71;100925.03;4147138;28;20300;-64
2022/07/05 04:44:59;;;;;;;6.45;1.77;;;;;;;20.43;45.29;100933.28;4145157;28;20046;-65
2022/07/05 04:47:02;;;;;;;5.75;1.65;;;;;;;20.50;45.66;100932.28;4180137;28;20076;-64
2022/07/05 04:49:05;;;;;;;7.93;1.70;;;;;;;20.51;45.23;100936.63;4161882;28;20030;-67
2022/07/05 04:51:08;;;;;;;4.20;1.80;;;;;;;20.48;45.11;100931.41;4160374;28;20390;-68
2022/07/05 04:53:11;;;;;;;4.88;1.75;;;;;;;20.52;45.33;100930.47;4164436;28;20088;-68
2022/07/05 04:55:14;;;;;;;6.68;1.98;;;;;;;20.57;44.52;100933.91;4180326;28;20044;-68
2022/07/05 04:57:17;;;;;;;7.03;2.08;;;;;;;20.58;44.70;100930.31;4175859;28;20061;-67
2022/07/05 04:59:21;;;;;;;8.98;2.42;;;;;;;20.58;44.71;100937.41;4184109;28;20059;-68
2022/07/05 05:01:28;;;;;;;4.88;1.85;;;;;;;20.52;44.70;100938.38;4171645;28;20095;-67
2022/07/05 05:03:31;;;;;;;3.40;1.65;;;;;;;20.57;44.89;100935.66;4165259;28;20069;-68
2022/07/05 05:05:34;;;;;;;8.30;1.58;;;;;;;20.53;45.07;100931.31;4165583;28;20044;-68
2022/07/05 05:07:39;;;;;;;4.30;1.38;;;;;;;20.66;44.80;100934.59;4165475;28;20519;-68
2022/07/05 05:09:42;;;;;;;5.63;1.80;;;;;;;20.60;45.12;100940.88;4164347;28;20042;-68
2022/07/05 05:11:45;;;;;;;4.63;1.63;;;;;;;20.63;45.45;100945.22;4175486;28;20128;-68
2022/07/05 05:13:48;;;;;;;6.53;1.60;;;;;;;20.72;45.01;100940.66;4173407;28;20391;-68
2022/07/05 05:15:52;;;;;;;3.47;1.60;;;;;;;20.69;45.33;100942.47;4165419;28;20037;-67
2022/07/05 05:17:55;;;;;;;5.78;1.52;;;;;;;20.73;44.79;100947.72;4164108;28;20397;-68
2022/07/05 05:19:58;;;;;;;7.60;1.77;;;;;;;20.85;44.49;100943.94;4185419;28;20501;-67
2022/07/05 05:22:01;;;;;;;4.60;1.30;;;;;;;20.75;44.91;100939.75;4171881;28;20132;-68
2022/07/05 05:24:05;;;;;;;4.20;2.08;;;;;;;20.73;45.30;100941.53;4181730;28;20055;-68
2022/07/05 05:26:08;;;;;;;6.55;1.92;;;;;;;20.73;45.08;100945.06;4181852;28;20492;-68
2022/07/05 05:28:11;;;;;;;6.22;2.28;;;;;;;20.79;45.05;100945.81;4186918;28;20045;-67
2022/07/05 05:30:15;;;;;;;8.73;2.35;;;;;;;20.87;44.39;100949.19;4173460;28;20037;-68
2022/07/05 05:32:19;;;;;;;9.75;2.50;;;;;;;20.80;44.23;100948.44;4164824;28;20045;-68
2022/07/05 05:34:22;;;;;;;3.78;1.45;;;;;;;20.78;44.46;100944.97;4164356;28;20041;-68
2022/07/05 05:36:24;;;;;;;4.72;1.80;;;;;;;20.83;44.41;100948.38;4151348;28;20042;-68
2022/07/05 05:38:28;;;;;;;8.32;1.98;;;;;;;20.84;44.48;100949.25;4171467;28;20125;-68
2022/07/05 05:40:32;;;;;;;5.40;1.80;;;;;;;20.84;44.70;100947.47;4165022;28;20129;-68
2022/07/05 05:42:35;;;;;;;5.93;1.80;;;;;;;20.88;44.90;100954.44;4166012;28;20044;-68
2022/07/05 05:44:38;;;;;;;8.95;1.90;;;;;;;20.91;45.40;100959.66;4181180;28;20068;-68
2022/07/05 05:46:41;;;;;;;12.20;2.17;;;;;;;21.13;43.56;100956.56;4181181;28;20051;-68
2022/07/05 05:48:45;;;;;;;10.32;2.40;;;;;;;21.10;43.46;100961.94;4180256;28;20033;-68
2022/07/05 05:50:48;;;;;;;12.38;2.45;;;;;;;21.16;43.22;100964.44;4163548;28;20049;-68
2022/07/05 05:52:52;;;;;;;8.48;2.15;;;;;;;21.20;43.34;100952.00;4163276;28;20116;-68
2022/07/05 05:54:55;;;;;;;6.75;2.72;;;;;;;21.29;42.95;100962.38;4179991;28;20056;-68
2022/07/05 05:56:58;;;;;;;10.15;2.10;;;;;;;21.30;43.13;100958.81;4181317;28;20135;-68
2022/07/05 05:59:00;;;;;;;6.40;1.90;;;;;;;21.28;43.12;100953.56;4166539;28;20055;-68
2022/07/05 06:01:03;;;;;;;4.72;1.98;;;;;;;21.34;43.81;100963.13;4161900;28;20436;-68
2022/07/05 06:03:06;;;;;;;8.68;2.53;;;;;;;21.42;42.47;100962.97;4180647;28;20037;-68
2022/07/05 06:05:11;;;;;;;8.23;2.30;;;;;;;21.51;42.78;100961.91;4163475;28;20051;-68
2022/07/05 06:07:14;;;;;;;7.93;2.33;;;;;;;21.48;42.81;100968.13;4181249;28;20412;-68
2022/07/05 06:09:17;;;;;;;7.22;2.30;;;;;;;21.48;42.86;100977.81;4180976;28;20037;-68
2022/07/05 06:11:20;;;;;;;7.40;1.75;;;;;;;21.55;42.74;100967.13;4163349;28;20060;-68
2022/07/05 06:13:24;;;;;;;7.40;2.40;;;;;;;21.66;42.59;100971.28;4171397;28;20041;-68
2022/07/05 06:15:27;;;;;;;8.73;2.30;;;;;;;21.69;42.43;100977.38;4180908;28;20049;-67
2022/07/05 06:17:36;;;;;;;10.85;2.20;;;;;;;21.69;42.55;100976.50;4180901;28;20047;-68
2022/07/05 06:19:39;;;;;;;9.02;2.88;;;;;;;21.76;42.20;100978.97;4163218;28;20033;-69
2022/07/05 06:21:44;;;;;;;7.45;2.50;;;;;;;21.66;42.22;100980.09;4179987;28;20123;-68
2022/07/05 06:23:47;;;;;;;9.73;2.92;;;;;;;21.62;42.37;100978.41;4168082;28;20128;-68
2022/07/05 06:25:49;;;;;;;7.30;2.30;;;;;;;21.71;42.21;100986.16;4163101;28;20045;-68
2022/07/05 06:27:54;;;;;;;8.25;2.55;;;;;;;21.73;42.58;100983.47;4164347;28;20048;-68
2022/07/05 06:29:58;;;;;;;9.88;2.20;;;;;;;21.77;42.48;100991.28;4164227;28;20042;-68
2022/07/05 06:32:01;;;;;;;10.80;2.42;;;;;;;21.93;42.06;100986.50;4163805;28;20353;-68
2022/07/05 06:34:04;;;;;;;12.00;2.70;;;;;;;21.94;42.06;100992.66;4164428;28;20043;-68
2022/07/05 06:36:07;;;;;;;5.93;2.45;;;;;;;21.90;42.42;100985.69;4162216;28;20053;-68
2022/07/05 06:38:12;;;;;;;5.35;2.17;;;;;;;21.89;42.33;100982.19;4183279;28;20040;-68
2022/07/05 06:40:18;;;;;;;9.23;1.80;;;;;;;21.87;42.73;100986.63;4172658;28;20041;-68
2022/07/05 06:42:21;;;;;;;7.28;2.55;;;;;;;22.02;41.96;100990.69;4178825;28;20447;-68
2022/07/05 06:44:24;;;;;;;10.90;2.47;;;;;;;22.04;41.86;100985.38;4180842;28;20045;-68
2022/07/05 06:46:38;;;;;;;9.50;2.47;;;;;;;22.03;42.58;100991.56;4172198;28;20560;-68
2022/07/05 06:48:41;;;;;;;8.73;2.85;;;;;;;22.16;42.35;100992.97;4175747;28;20453;-68
2022/07/05 06:50:44;;;;;;;9.25;2.58;;;;;;;22.22;41.88;100994.59;4180417;28;20037;-67
2022/07/05 06:52:47;;;;;;;7.93;2.55;;;;;;;22.26;42.15;100997.13;4180319;28;20045;-67
2022/07/05 06:54:52;;;;;;;7.05;2.92;;;;;;;22.27;42.32;101001.53;4179251;28;20045;-68
2022/07/05 06:56:55;;;;;;;9.02;2.95;;;;;;;22.36;41.93;100995.16;4180543;28;20068;-68
2022/07/05 06:59:18;;;;;;;7.10;2.38;;;;;;;22.38;41.80;100997.75;4180323;28;20045;-68
2022/07/05 07:01:40;;;;;;;8.13;2.45;;;;;;;22.42;41.38;101005.59;4171803;28;20092;-68
2022/07/05 07:03:43;;;;;;;9.00;2.05;;;;;;;22.40;41.56;101001.22;4176047;28;20488;-68
2022/07/05 07:06:07;;;;;;;4.47;2.08;;;;;;;22.23;42.51;101002.50;4162669;28;20567;-68
2022/07/05 07:10:44;;;;;;;8.80;2.20;;;;;;;22.42;42.34;100999.44;4113379;28;19930;-68
2022/07/05 07:12:49;;;;;;;8.02;2.30;;;;;;;22.59;41.57;101001.59;4139823;28;20053;-69
2022/07/05 07:14:52;;;;;;;8.05;2.13;;;;;;;22.63;41.31;101001.50;4182215;28;20127;-69
2022/07/05 07:16:54;;;;;;;7.30;1.70;;;;;;;22.61;41.42;101007.75;4182984;28;20040;-69
2022/07/05 07:18:58;;;;;;;8.27;2.67;;;;;;;22.71;42.00;101011.88;4178858;28;20434;-68
2022/07/05 07:21:17;;;;;;;3.92;1.95;;;;;;;22.75;41.64;101012.66;4185698;28;20516;-68
2022/07/05 07:23:20;;;;;;;9.38;2.50;;;;;;;22.81;41.32;101016.03;4178560;28;20044;-68
2022/07/05 07:25:23;;;;;;;6.43;2.20;;;;;;;22.83;41.14;101021.28;4162530;28;20049;-68
2022/07/05 07:27:28;;;;;;;7.80;2.35;;;;;;;22.90;40.87;101014.03;4163736;28;20404;-68
2022/07/05 07:29:31;;;;;;;6.32;2.38;;;;;;;22.91;40.42;101016.63;4162396;28;20052;-68
2022/07/05 07:31:34;;;;;;;9.30;2.53;;;;;;;22.93;40.25;101013.94;4163625;28;20095;-68
2022/07/05 07:33:37;;;;;;;6.60;2.58;;;;;;;23.00;40.42;101013.72;4168298;28;20561;-67
2022/07/05 07:35:47;;;;;;;4.10;1.45;;;;;;;22.99;39.86;101014.63;4175689;28;20038;-68
2022/07/05 07:37:50;;;;;;;7.03;2.28;;;;;;;22.87;41.00;101014.09;4163753;28;20052;-69
2022/07/05 07:39:53;;;;;;;4.63;2.00;;;;;;;22.98;40.36;101010.25;4163683;28;20045;-68
2022/07/05 07:41:56;;;;;;;4.78;2.30;;;;;;;23.15;40.03;101012.44;4171988;28;20047;-67
2022/07/05 07:44:01;;;;;;;8.88;2.60;;;;;;;23.18;40.22;101020.28;4174805;28;20493;-68
2022/07/05 07:46:04;;;;;;;7.45;2.63;;;;;;;23.25;40.19;101018.34;4152451;28;20557;-68
2022/07/05 07:48:07;;;;;;;5.63;2.25;;;;;;;23.28;40.02;101020.91;4166718;28;20419;-67
2022/07/05 07:50:10;;;;;;;9.70;2.30;;;;;;;23.28;40.36;101026.19;4180753;28;20100;-68
2022/07/05 07:52:13;;;;;;;9.45;2.50;;;;;;;23.42;40.24;101025.81;4161864;28;20055;-68
2022/07/05 07:54:16;;;;;;;5.97;1.95;;;;;;;23.46;39.78;101021.25;4184781;28;20048;-68
2022/07/05 07:56:19;;;;;;;6.75;2.42;;;;;;;23.46;40.26;101019.47;4171507;28;20038;-68
2022/07/05 07:58:22;;;;;;;6.90;2.22;;;;;;;23.59;39.39;101022.59;4182536;28;20042;-68
2022/07/05 08:00:26;;;;;;;5.00;2.35;;;;;;;23.54;39.41;101019.25;4187734;28;20044;-68
2022/07/05 08:02:29;;;;;;;8.95;2.63;;;;;;;23.54;38.84;101016.59;4186619;28;20048;-68
2022/07/05 08:04:32;;;;;;;7.75;2.25;;;;;;;23.53;39.68;101028.13;4187553;28;20040;-68
2022/07/05 08:06:35;;;;;;;8.73;2.55;;;;;;;23.71;38.59;101021.34;4183241;28;20504;-68
2022/07/05 08:08:39;;;;;;;8.50;1.73;;;;;;;23.69;38.72;101018.75;4186428;28;20041;-68
2022/07/05 08:10:42;;;;;;;6.25;1.70;;;;;;;23.67;38.65;101025.03;4190357;28;20045;-68
2022/07/05 08:12:45;;;;;;;4.93;1.98;;;;;;;23.77;39.18;101018.53;4187913;28;20130;-68
2022/07/05 08:14:48;;;;;;;6.43;1.77;;;;;;;23.78;39.18;101022.91;4190835;28;20029;-68
2022/07/05 08:16:52;;;;;;;5.30;1.58;;;;;;;23.92;37.88;101016.31;4183665;28;20037;-68
2022/07/05 08:21:35;;;;;;;5.90;1.50;;;;;;;24.25;35.42;101016.13;4187413;28;20032;-68
2022/07/05 08:23:38;;;;;;;4.00;1.58;;;;;;;24.15;37.01;101018.19;4161818;28;20515;-68
2022/07/05 08:25:41;;;;;;;3.83;1.70;;;;;;;24.17;35.46;101021.69;4180778;28;20033;-69
2022/07/05 08:27:44;;;;;;;6.25;1.30;;;;;;;24.04;36.52;101022.09;4168080;28;20444;-69
2022/07/05 08:29:46;;;;;;;9.88;1.67;;;;;;;24.11;37.26;101019.22;4187122;28;20039;-69
2022/07/05 08:31:52;;;;;;;8.60;1.77;;;;;;;24.14;37.03;101017.34;4190100;28;20033;-69
2022/07/05 08:33:55;;;;;;;11.68;2.75;;;;;;;24.33;37.00;101020.25;4183797;28;20037;-68
2022/07/05 08:35:58;;;;;;;5.72;1.60;;;;;;;24.38;36.69;101018.28;4182568;28;20029;-67
2022/07/05 08:38:01;;;;;;;9.10;1.77;;;;;;;24.36;36.55;101014.81;4183840;28;20052;-67
2022/07/05 08:40:07;;;;;;;8.90;2.00;;;;;;;24.40;35.89;101011.16;4181610;28;20071;-68
2022/07/05 08:42:11;;;;;;;6.95;2.00;;;;;;;24.39;35.64;101014.72;4182135;28;20049;-68
2022/07/05 08:44:18;;;;;;;5.57;1.55;;;;;;;24.42;35.22;101012.88;4185077;28;20045;-69
2022/07/05 08:46:21;;;;;;;6.57;1.50;;;;;;;24.48;33.24;101005.56;4184328;28;20044;-68
2022/07/05 08:48:28;;;;;;;4.43;1.45;;;;;;;24.53;34.73;101016.00;4180587;28;20053;-68
2022/07/05 08:50:32;;;;;;;5.47;1.60;;;;;;;24.61;34.35;101010.47;4182690;28;20041;-68
2022/07/05 08:52:36;;;;;;;;;;;;;;;24.61;34.02;101011.34;4159083;28;20060;-68
2022/07/05 08:54:39;;;;;;;8.10;2.13;;;;;;;24.68;34.90;101004.88;4182288;28;20431;-68
2022/07/05 08:56:42;;;;;;;6.10;1.92;;;;;;;24.69;35.20;101009.28;4182185;28;20041;-69
2022/07/05 08:59:05;;;;;;;8.30;2.40;;;;;;;24.76;35.00;101006.41;4147956;28;20048;-69
2022/07/05 09:01:10;;;;;;;3.85;1.40;;;;;;;24.83;35.26;101005.25;4147937;28;20425;-69
2022/07/05 09:03:15;;;;;;;6.72;1.30;;;;;;;24.77;35.88;101002.81;4181679;28;20040;-69
2022/07/05 09:05:21;;;;;;;5.97;2.00;;;;;;;25.05;35.46;100997.34;4172840;28;20500;-68
2022/07/05 09:07:27;;;;;;;3.78;1.10;;;;;;;25.05;35.42;100997.34;4182014;28;20041;-69
2022/07/05 09:09:32;;;;;;;3.83;1.55;;;;;;;25.11;35.26;100998.91;4179654;28;20037;-69
2022/07/05 09:11:37;;;;;;;5.90;1.08;;;;;;;25.19;34.98;100995.03;4180667;28;20436;-69
2022/07/05 09:13:42;;;;;;;9.25;1.38;;;;;;;25.38;34.97;101003.19;4181912;28;20124;-69
2022/07/05 09:16:06;;;;;;;4.22;1.00;;;;;;;25.39;33.77;100988.09;4181886;28;20447;-69
2022/07/05 09:18:10;;;;;;;5.35;1.27;;;;;;;25.44;33.99;100989.63;4164076;28;20057;-69
2022/07/05 09:20:14;;;;;;;;;;;;;;;25.44;34.46;100994.09;4173380;28;20068;-69
2022/07/05 09:22:18;;;;;;;7.10;1.50;;;;;;;25.70;33.80;100995.72;4147715;28;19927;-69
2022/07/05 09:24:21;;;;;;;;;;;;;;;25.56;34.85;100992.75;4165710;28;20042;-69
2022/07/05 09:26:32;;;;;;;6.28;1.42;;;;;;;25.66;34.88;100996.78;4165282;28;19944;-69
2022/07/05 09:28:35;;;;;;;2.13;0.95;;;;;;;25.82;34.41;100993.47;4155315;28;20045;-68
2022/07/05 09:30:39;;;;;;;3.53;1.40;;;;;;;25.90;34.31;100992.22;4176413;28;20504;-69
2022/07/05 09:32:41;;;;;;;3.53;0.95;;;;;;;25.88;33.18;100987.91;4181233;28;20037;-68
2022/07/05 09:34:44;;;;;;;4.32;1.13;;;;;;;25.96;33.50;100988.44;4181601;28;20063;-68
2022/07/05 09:36:51;;;;;;;1.70;0.95;;;;;;;26.04;33.38;100994.34;4181610;28;20544;-69
2022/07/05 09:38:56;;;;;;;5.18;1.27;;;;;;;26.11;33.11;100994.97;4163909;28;20056;-69
2022/07/05 09:41:00;;;;;;;;;;;;;;;26.39;32.65;100994.66;4180721;28;20037;-69
2022/07/05 09:43:14;;;;;;;4.05;1.02;;;;;;;26.37;31.36;100995.63;4173674;28;19921;-67
2022/07/05 09:45:23;;;;;;;8.35;1.00;;;;;;;26.21;32.01;100993.66;4173410;28;20039;-67